sensor_id;sensor_type;location;lat;lon;timestamp;P1;durP1;ratioP1;P2;durP2;ratioP2
36815;SDS011;22760;51.910;4.474;2022-09-11T00:00:39;17.40;;;12.82;;
36815;SDS011;22760;51.910;4.474;2022-09-11T00:03:08;14.10;;;11.43;;
36815;SDS011;22760;51.910;4.474;2022-09-11T00:05:38;14.63;;;11.55;;
36815;SDS011;22760;51.910;4.474;2022-09-11T00:08:05;17.23;;;11.90;;
36815;SDS011;22760;51.910;4.474;2022-09-11T00:10:34;20.17;;;12.57;;
36815;SDS011;22760;51.910;4.474;2022-09-11T00:13:04;14.60;;;12.13;;
36815;SDS011;22760;51.910;4.474;2022-09-11T00:15:34;17.92;;;13.35;;
36815;SDS011;22760;51.910;4.474;2022-09-11T00:18:03;18.63;;;15.15;;
36815;SDS011;22760;51.910;4.474;2022-09-11T00:20:32;27.83;;;14.95;;
36815;SDS011;22760;51.910;4.474;2022-09-11T00:23:00;22.65;;;15.55;;
36815;SDS011;22760;51.910;4.474;2022-09-11T00:25:29;17.13;;;13.45;;
36815;SDS011;22760;51.910;4.474;2022-09-11T00:27:58;20.15;;;14.73;;
36815;SDS011;22760;51.910;4.474;2022-09-11T00:30:25;20.52;;;14.02;;
36815;SDS011;22760;51.910;4.474;2022-09-11T00:32:52;22.13;;;14.52;;
36815;SDS011;22760;51.910;4.474;2022-09-11T00:35:19;17.75;;;14.07;;
36815;SDS011;22760;51.910;4.474;2022-09-11T00:37:47;19.48;;;14.50;;
36815;SDS011;22760;51.910;4.474;2022-09-11T00:40:14;19.13;;;13.70;;
36815;SDS011;22760;51.910;4.474;2022-09-11T00:42:41;18.65;;;13.80;;
36815;SDS011;22760;51.910;4.474;2022-09-11T00:45:15;19.45;;;13.85;;
36815;SDS011;22760;51.910;4.474;2022-09-11T00:47:46;19.10;;;15.05;;
36815;SDS011;22760;51.910;4.474;2022-09-11T00:50:16;19.40;;;14.02;;
36815;SDS011;22760;51.910;4.474;2022-09-11T00:52:48;19.63;;;14.00;;
36815;SDS011;22760;51.910;4.474;2022-09-11T00:55:17;22.10;;;14.75;;
36815;SDS011;22760;51.910;4.474;2022-09-11T00:57:47;20.05;;;13.90;;
36815;SDS011;22760;51.910;4.474;2022-09-11T01:00:17;22.42;;;16.00;;
36815;SDS011;22760;51.910;4.474;2022-09-11T01:02:45;25.92;;;15.23;;
36815;SDS011;22760;51.910;4.474;2022-09-11T01:05:14;21.33;;;15.63;;
36815;SDS011;22760;51.910;4.474;2022-09-11T01:07:41;21.17;;;15.43;;
36815;SDS011;22760;51.910;4.474;2022-09-11T01:10:11;21.58;;;14.63;;
36815;SDS011;22760;51.910;4.474;2022-09-11T01:12:43;22.58;;;16.08;;
36815;SDS011;22760;51.910;4.474;2022-09-11T01:15:17;22.02;;;15.63;;
36815;SDS011;22760;51.910;4.474;2022-09-11T01:17:51;23.85;;;16.45;;
36815;SDS011;22760;51.910;4.474;2022-09-11T01:20:25;19.63;;;14.82;;
36815;SDS011;22760;51.910;4.474;2022-09-11T01:23:09;18.45;;;15.27;;
36815;SDS011;22760;51.910;4.474;2022-09-11T01:26:00;21.23;;;15.77;;
36815;SDS011;22760;51.910;4.474;2022-09-11T01:28:43;21.98;;;17.13;;
36815;SDS011;22760;51.910;4.474;2022-09-11T01:31:16;22.23;;;16.58;;
36815;SDS011;22760;51.910;4.474;2022-09-11T01:33:51;21.52;;;15.60;;
36815;SDS011;22760;51.910;4.474;2022-09-11T01:36:25;22.15;;;17.38;;
36815;SDS011;22760;51.910;4.474;2022-09-11T01:38:55;27.90;;;17.95;;
36815;SDS011;22760;51.910;4.474;2022-09-11T01:41:25;25.35;;;18.17;;
36815;SDS011;22760;51.910;4.474;2022-09-11T01:43:56;23.15;;;16.75;;
36815;SDS011;22760;51.910;4.474;2022-09-11T01:46:27;28.05;;;19.15;;
36815;SDS011;22760;51.910;4.474;2022-09-11T01:49:02;24.30;;;18.65;;
36815;SDS011;22760;51.910;4.474;2022-09-11T01:51:32;24.20;;;16.88;;
36815;SDS011;22760;51.910;4.474;2022-09-11T01:54:01;24.60;;;19.38;;
36815;SDS011;22760;51.910;4.474;2022-09-11T01:56:32;25.88;;;18.98;;
36815;SDS011;22760;51.910;4.474;2022-09-11T01:59:05;26.67;;;19.43;;
36815;SDS011;22760;51.910;4.474;2022-09-11T02:01:36;24.50;;;18.75;;
36815;SDS011;22760;51.910;4.474;2022-09-11T02:04:07;25.27;;;19.00;;
36815;SDS011;22760;51.910;4.474;2022-09-11T02:06:38;25.25;;;19.33;;
36815;SDS011;22760;51.910;4.474;2022-09-11T02:09:12;25.90;;;19.42;;
36815;SDS011;22760;51.910;4.474;2022-09-11T02:11:41;26.08;;;19.77;;
36815;SDS011;22760;51.910;4.474;2022-09-11T02:14:14;26.30;;;18.92;;
36815;SDS011;22760;51.910;4.474;2022-09-11T02:16:46;28.40;;;19.40;;
36815;SDS011;22760;51.910;4.474;2022-09-11T02:19:15;24.40;;;19.23;;
36815;SDS011;22760;51.910;4.474;2022-09-11T02:21:44;25.75;;;19.90;;
36815;SDS011;22760;51.910;4.474;2022-09-11T02:24:12;22.55;;;18.35;;
36815;SDS011;22760;51.910;4.474;2022-09-11T02:26:39;25.95;;;18.75;;
36815;SDS011;22760;51.910;4.474;2022-09-11T02:29:09;24.08;;;19.33;;
36815;SDS011;22760;51.910;4.474;2022-09-11T02:31:39;25.63;;;18.88;;
36815;SDS011;22760;51.910;4.474;2022-09-11T02:34:07;26.70;;;19.23;;
36815;SDS011;22760;51.910;4.474;2022-09-11T02:36:42;23.30;;;19.17;;
36815;SDS011;22760;51.910;4.474;2022-09-11T02:39:24;25.83;;;18.38;;
36815;SDS011;22760;51.910;4.474;2022-09-11T02:42:05;23.58;;;19.58;;
36815;SDS011;22760;51.910;4.474;2022-09-11T02:44:47;29.25;;;19.35;;
36815;SDS011;22760;51.910;4.474;2022-09-11T02:47:24;28.20;;;20.48;;
36815;SDS011;22760;51.910;4.474;2022-09-11T02:50:04;29.85;;;21.40;;
36815;SDS011;22760;51.910;4.474;2022-09-11T02:52:38;26.70;;;19.23;;
36815;SDS011;22760;51.910;4.474;2022-09-11T02:55:12;23.50;;;20.17;;
36815;SDS011;22760;51.910;4.474;2022-09-11T02:57:48;26.17;;;19.23;;
36815;SDS011;22760;51.910;4.474;2022-09-11T03:00:20;26.80;;;21.02;;
36815;SDS011;22760;51.910;4.474;2022-09-11T03:02:48;24.85;;;18.63;;
36815;SDS011;22760;51.910;4.474;2022-09-11T03:05:15;25.70;;;19.85;;
36815;SDS011;22760;51.910;4.474;2022-09-11T03:07:42;28.80;;;20.20;;
36815;SDS011;22760;51.910;4.474;2022-09-11T03:10:09;23.90;;;18.67;;
36815;SDS011;22760;51.910;4.474;2022-09-11T03:12:36;22.42;;;19.08;;
36815;SDS011;22760;51.910;4.474;2022-09-11T03:15:04;28.10;;;20.00;;
36815;SDS011;22760;51.910;4.474;2022-09-11T03:17:33;26.95;;;19.88;;
36815;SDS011;22760;51.910;4.474;2022-09-11T03:20:02;26.85;;;19.55;;
36815;SDS011;22760;51.910;4.474;2022-09-11T03:22:29;33.25;;;20.85;;
36815;SDS011;22760;51.910;4.474;2022-09-11T03:24:56;33.85;;;21.33;;
36815;SDS011;22760;51.910;4.474;2022-09-11T03:27:23;28.88;;;19.65;;
36815;SDS011;22760;51.910;4.474;2022-09-11T03:29:50;24.92;;;18.85;;
36815;SDS011;22760;51.910;4.474;2022-09-11T03:32:16;25.45;;;19.98;;
36815;SDS011;22760;51.910;4.474;2022-09-11T03:34:43;25.25;;;19.65;;
36815;SDS011;22760;51.910;4.474;2022-09-11T03:37:13;27.92;;;20.45;;
36815;SDS011;22760;51.910;4.474;2022-09-11T03:39:40;24.15;;;19.65;;
36815;SDS011;22760;51.910;4.474;2022-09-11T03:42:07;26.35;;;20.65;;
36815;SDS011;22760;51.910;4.474;2022-09-11T03:44:36;32.50;;;23.48;;
36815;SDS011;22760;51.910;4.474;2022-09-11T03:47:03;31.17;;;22.83;;
36815;SDS011;22760;51.910;4.474;2022-09-11T03:49:30;31.10;;;24.52;;
36815;SDS011;22760;51.910;4.474;2022-09-11T03:51:57;33.55;;;25.38;;
36815;SDS011;22760;51.910;4.474;2022-09-11T03:54:26;37.30;;;26.35;;
36815;SDS011;22760;51.910;4.474;2022-09-11T03:56:53;39.45;;;27.05;;
36815;SDS011;22760;51.910;4.474;2022-09-11T03:59:19;35.60;;;26.75;;
36815;SDS011;22760;51.910;4.474;2022-09-11T04:01:47;35.13;;;26.02;;
36815;SDS011;22760;51.910;4.474;2022-09-11T04:04:14;37.13;;;27.17;;
36815;SDS011;22760;51.910;4.474;2022-09-11T04:06:41;37.05;;;27.25;;
36815;SDS011;22760;51.910;4.474;2022-09-11T04:09:08;37.85;;;27.65;;
36815;SDS011;22760;51.910;4.474;2022-09-11T04:11:36;42.13;;;25.77;;
36815;SDS011;22760;51.910;4.474;2022-09-11T04:14:04;40.10;;;25.52;;
36815;SDS011;22760;51.910;4.474;2022-09-11T04:16:31;38.55;;;26.35;;
36815;SDS011;22760;51.910;4.474;2022-09-11T04:18:59;31.67;;;24.15;;
36815;SDS011;22760;51.910;4.474;2022-09-11T04:21:27;31.20;;;24.05;;
36815;SDS011;22760;51.910;4.474;2022-09-11T04:23:54;30.48;;;23.67;;
36815;SDS011;22760;51.910;4.474;2022-09-11T04:26:24;29.60;;;23.77;;
36815;SDS011;22760;51.910;4.474;2022-09-11T04:28:56;30.70;;;23.05;;
36815;SDS011;22760;51.910;4.474;2022-09-11T04:31:23;29.33;;;22.33;;
36815;SDS011;22760;51.910;4.474;2022-09-11T04:33:51;28.92;;;21.85;;
36815;SDS011;22760;51.910;4.474;2022-09-11T04:36:18;29.33;;;23.45;;
36815;SDS011;22760;51.910;4.474;2022-09-11T04:38:45;31.67;;;24.17;;
36815;SDS011;22760;51.910;4.474;2022-09-11T04:41:13;29.75;;;22.75;;
36815;SDS011;22760;51.910;4.474;2022-09-11T04:43:41;29.15;;;23.20;;
36815;SDS011;22760;51.910;4.474;2022-09-11T04:46:10;31.83;;;24.10;;
36815;SDS011;22760;51.910;4.474;2022-09-11T04:48:41;33.22;;;23.33;;
36815;SDS011;22760;51.910;4.474;2022-09-11T04:51:09;37.63;;;25.48;;
36815;SDS011;22760;51.910;4.474;2022-09-11T04:53:37;31.08;;;24.55;;
36815;SDS011;22760;51.910;4.474;2022-09-11T04:56:04;33.03;;;24.80;;
36815;SDS011;22760;51.910;4.474;2022-09-11T04:58:33;32.58;;;25.17;;
36815;SDS011;22760;51.910;4.474;2022-09-11T05:01:02;42.63;;;28.30;;
36815;SDS011;22760;51.910;4.474;2022-09-11T05:03:32;40.75;;;29.48;;
36815;SDS011;22760;51.910;4.474;2022-09-11T05:06:02;39.17;;;29.00;;
36815;SDS011;22760;51.910;4.474;2022-09-11T05:08:30;41.30;;;27.90;;
36815;SDS011;22760;51.910;4.474;2022-09-11T05:10:57;35.97;;;27.42;;
36815;SDS011;22760;51.910;4.474;2022-09-11T05:13:25;35.70;;;28.77;;
36815;SDS011;22760;51.910;4.474;2022-09-11T05:15:51;37.78;;;27.67;;
36815;SDS011;22760;51.910;4.474;2022-09-11T05:18:19;39.03;;;26.52;;
36815;SDS011;22760;51.910;4.474;2022-09-11T05:20:47;41.05;;;28.02;;
36815;SDS011;22760;51.910;4.474;2022-09-11T05:23:14;40.63;;;28.52;;
36815;SDS011;22760;51.910;4.474;2022-09-11T05:25:40;38.42;;;28.83;;
36815;SDS011;22760;51.910;4.474;2022-09-11T05:28:07;35.08;;;26.13;;
36815;SDS011;22760;51.910;4.474;2022-09-11T05:30:35;39.72;;;29.58;;
36815;SDS011;22760;51.910;4.474;2022-09-11T05:33:02;37.38;;;28.83;;
36815;SDS011;22760;51.910;4.474;2022-09-11T05:35:30;34.30;;;26.63;;
36815;SDS011;22760;51.910;4.474;2022-09-11T05:37:58;39.53;;;29.27;;
36815;SDS011;22760;51.910;4.474;2022-09-11T05:40:25;42.50;;;29.33;;
36815;SDS011;22760;51.910;4.474;2022-09-11T05:42:52;39.67;;;28.98;;
36815;SDS011;22760;51.910;4.474;2022-09-11T05:45:19;35.90;;;27.83;;
36815;SDS011;22760;51.910;4.474;2022-09-11T05:47:46;39.88;;;27.73;;
36815;SDS011;22760;51.910;4.474;2022-09-11T05:50:13;40.67;;;28.50;;
36815;SDS011;22760;51.910;4.474;2022-09-11T05:52:39;44.17;;;29.27;;
36815;SDS011;22760;51.910;4.474;2022-09-11T05:55:08;39.13;;;28.85;;
36815;SDS011;22760;51.910;4.474;2022-09-11T05:57:35;36.25;;;27.20;;
36815;SDS011;22760;51.910;4.474;2022-09-11T06:00:02;43.80;;;29.38;;
36815;SDS011;22760;51.910;4.474;2022-09-11T06:02:29;38.40;;;28.25;;
36815;SDS011;22760;51.910;4.474;2022-09-11T06:04:56;38.42;;;28.15;;
36815;SDS011;22760;51.910;4.474;2022-09-11T06:07:23;37.53;;;27.60;;
36815;SDS011;22760;51.910;4.474;2022-09-11T06:09:50;36.03;;;26.67;;
36815;SDS011;22760;51.910;4.474;2022-09-11T06:12:18;35.63;;;27.45;;
36815;SDS011;22760;51.910;4.474;2022-09-11T06:14:45;37.60;;;28.70;;
36815;SDS011;22760;51.910;4.474;2022-09-11T06:17:12;39.47;;;27.27;;
36815;SDS011;22760;51.910;4.474;2022-09-11T06:19:39;38.28;;;27.65;;
36815;SDS011;22760;51.910;4.474;2022-09-11T06:22:05;35.70;;;26.02;;
36815;SDS011;22760;51.910;4.474;2022-09-11T06:24:32;35.60;;;26.73;;
36815;SDS011;22760;51.910;4.474;2022-09-11T06:26:59;34.15;;;26.13;;
36815;SDS011;22760;51.910;4.474;2022-09-11T06:29:27;33.00;;;25.17;;
36815;SDS011;22760;51.910;4.474;2022-09-11T06:31:56;36.00;;;26.25;;
36815;SDS011;22760;51.910;4.474;2022-09-11T06:34:23;33.03;;;25.30;;
36815;SDS011;22760;51.910;4.474;2022-09-11T06:36:51;34.00;;;26.63;;
36815;SDS011;22760;51.910;4.474;2022-09-11T06:39:18;33.33;;;24.52;;
36815;SDS011;22760;51.910;4.474;2022-09-11T06:41:46;34.45;;;25.45;;
36815;SDS011;22760;51.910;4.474;2022-09-11T06:44:14;35.78;;;26.55;;
36815;SDS011;22760;51.910;4.474;2022-09-11T06:46:42;39.83;;;26.30;;
36815;SDS011;22760;51.910;4.474;2022-09-11T06:49:09;34.63;;;24.60;;
36815;SDS011;22760;51.910;4.474;2022-09-11T06:51:37;30.13;;;22.95;;
36815;SDS011;22760;51.910;4.474;2022-09-11T06:54:04;31.55;;;23.55;;
36815;SDS011;22760;51.910;4.474;2022-09-11T06:56:31;30.02;;;22.65;;
36815;SDS011;22760;51.910;4.474;2022-09-11T06:58:58;24.88;;;20.73;;
36815;SDS011;22760;51.910;4.474;2022-09-11T07:01:25;22.92;;;17.35;;
36815;SDS011;22760;51.910;4.474;2022-09-11T07:03:54;27.80;;;21.73;;
36815;SDS011;22760;51.910;4.474;2022-09-11T07:06:22;25.90;;;20.02;;
36815;SDS011;22760;51.910;4.474;2022-09-11T07:08:50;30.55;;;23.23;;
36815;SDS011;22760;51.910;4.474;2022-09-11T07:11:18;22.60;;;19.30;;
36815;SDS011;22760;51.910;4.474;2022-09-11T07:13:46;21.23;;;16.98;;
36815;SDS011;22760;51.910;4.474;2022-09-11T07:16:13;18.55;;;15.25;;
36815;SDS011;22760;51.910;4.474;2022-09-11T07:18:41;19.52;;;15.13;;
36815;SDS011;22760;51.910;4.474;2022-09-11T07:21:10;22.15;;;17.55;;
36815;SDS011;22760;51.910;4.474;2022-09-11T07:23:38;17.02;;;14.10;;
36815;SDS011;22760;51.910;4.474;2022-09-11T07:26:07;22.60;;;18.77;;
36815;SDS011;22760;51.910;4.474;2022-09-11T07:28:35;18.67;;;15.43;;
36815;SDS011;22760;51.910;4.474;2022-09-11T07:31:06;17.58;;;13.88;;
36815;SDS011;22760;51.910;4.474;2022-09-11T07:33:35;24.23;;;17.73;;
36815;SDS011;22760;51.910;4.474;2022-09-11T07:36:06;21.95;;;17.58;;
36815;SDS011;22760;51.910;4.474;2022-09-11T07:38:37;21.48;;;16.80;;
36815;SDS011;22760;51.910;4.474;2022-09-11T07:41:04;24.42;;;20.20;;
36815;SDS011;22760;51.910;4.474;2022-09-11T07:43:32;21.55;;;18.50;;
36815;SDS011;22760;51.910;4.474;2022-09-11T07:46:00;25.90;;;20.65;;
36815;SDS011;22760;51.910;4.474;2022-09-11T07:48:27;22.70;;;17.30;;
36815;SDS011;22760;51.910;4.474;2022-09-11T07:50:57;19.70;;;16.20;;
36815;SDS011;22760;51.910;4.474;2022-09-11T07:53:26;19.98;;;17.05;;
36815;SDS011;22760;51.910;4.474;2022-09-11T07:55:54;20.30;;;16.02;;
36815;SDS011;22760;51.910;4.474;2022-09-11T07:58:29;15.40;;;13.15;;
36815;SDS011;22760;51.910;4.474;2022-09-11T08:00:57;22.50;;;18.50;;
36815;SDS011;22760;51.910;4.474;2022-09-11T08:03:24;23.75;;;16.23;;
36815;SDS011;22760;51.910;4.474;2022-09-11T08:05:55;21.25;;;15.70;;
36815;SDS011;22760;51.910;4.474;2022-09-11T08:08:22;21.52;;;18.05;;
36815;SDS011;22760;51.910;4.474;2022-09-11T08:10:50;23.10;;;17.52;;
36815;SDS011;22760;51.910;4.474;2022-09-11T08:13:20;22.23;;;17.80;;
36815;SDS011;22760;51.910;4.474;2022-09-11T08:15:46;21.15;;;17.17;;
36815;SDS011;22760;51.910;4.474;2022-09-11T08:18:14;21.67;;;16.83;;
36815;SDS011;22760;51.910;4.474;2022-09-11T08:20:41;18.30;;;14.48;;
36815;SDS011;22760;51.910;4.474;2022-09-11T08:23:08;24.77;;;17.80;;
36815;SDS011;22760;51.910;4.474;2022-09-11T08:25:36;16.85;;;14.88;;
36815;SDS011;22760;51.910;4.474;2022-09-11T08:28:04;16.45;;;12.98;;
36815;SDS011;22760;51.910;4.474;2022-09-11T08:30:32;15.98;;;12.65;;
36815;SDS011;22760;51.910;4.474;2022-09-11T08:33:02;13.20;;;10.15;;
36815;SDS011;22760;51.910;4.474;2022-09-11T08:35:30;10.85;;;8.15;;
36815;SDS011;22760;51.910;4.474;2022-09-11T08:37:57;20.40;;;11.98;;
36815;SDS011;22760;51.910;4.474;2022-09-11T08:40:24;15.10;;;11.15;;
36815;SDS011;22760;51.910;4.474;2022-09-11T08:42:53;11.93;;;8.90;;
36815;SDS011;22760;51.910;4.474;2022-09-11T08:45:22;12.20;;;8.48;;
36815;SDS011;22760;51.910;4.474;2022-09-11T08:47:56;9.52;;;6.90;;
36815;SDS011;22760;51.910;4.474;2022-09-11T08:50:25;11.80;;;7.30;;
36815;SDS011;22760;51.910;4.474;2022-09-11T08:52:55;9.23;;;6.70;;
36815;SDS011;22760;51.910;4.474;2022-09-11T08:55:26;5.80;;;5.20;;
36815;SDS011;22760;51.910;4.474;2022-09-11T08:57:57;8.25;;;5.15;;
36815;SDS011;22760;51.910;4.474;2022-09-11T09:00:30;7.63;;;4.97;;
36815;SDS011;22760;51.910;4.474;2022-09-11T09:03:18;6.95;;;3.17;;
36815;SDS011;22760;51.910;4.474;2022-09-11T09:06:15;4.32;;;2.65;;
36815;SDS011;22760;51.910;4.474;2022-09-11T09:08:54;4.13;;;2.63;;
36815;SDS011;22760;51.910;4.474;2022-09-11T09:11:30;8.27;;;2.33;;
36815;SDS011;22760;51.910;4.474;2022-09-11T09:14:09;5.15;;;2.40;;
36815;SDS011;22760;51.910;4.474;2022-09-11T09:16:58;4.70;;;1.65;;
36815;SDS011;22760;51.910;4.474;2022-09-11T09:19:31;3.58;;;2.28;;
36815;SDS011;22760;51.910;4.474;2022-09-11T09:22:05;3.65;;;2.20;;
36815;SDS011;22760;51.910;4.474;2022-09-11T09:24:40;3.72;;;2.10;;
36815;SDS011;22760;51.910;4.474;2022-09-11T09:27:24;6.45;;;1.90;;
36815;SDS011;22760;51.910;4.474;2022-09-11T09:29:55;6.22;;;2.63;;
36815;SDS011;22760;51.910;4.474;2022-09-11T09:32:28;4.82;;;2.70;;
36815;SDS011;22760;51.910;4.474;2022-09-11T09:35:00;6.50;;;2.72;;
36815;SDS011;22760;51.910;4.474;2022-09-11T09:37:32;5.72;;;3.10;;
36815;SDS011;22760;51.910;4.474;2022-09-11T09:39:59;5.43;;;2.70;;
36815;SDS011;22760;51.910;4.474;2022-09-11T09:42:31;5.55;;;3.05;;
36815;SDS011;22760;51.910;4.474;2022-09-11T09:45:37;4.18;;;2.38;;
36815;SDS011;22760;51.910;4.474;2022-09-11T09:48:09;4.82;;;3.13;;
36815;SDS011;22760;51.910;4.474;2022-09-11T09:50:38;4.57;;;2.33;;
36815;SDS011;22760;51.910;4.474;2022-09-11T09:53:10;6.10;;;2.60;;
36815;SDS011;22760;51.910;4.474;2022-09-11T09:55:44;6.38;;;3.20;;
36815;SDS011;22760;51.910;4.474;2022-09-11T09:58:12;6.20;;;2.40;;
36815;SDS011;22760;51.910;4.474;2022-09-11T10:00:39;4.60;;;2.50;;
36815;SDS011;22760;51.910;4.474;2022-09-11T10:03:16;4.28;;;2.10;;
36815;SDS011;22760;51.910;4.474;2022-09-11T10:05:46;4.85;;;2.08;;
36815;SDS011;22760;51.910;4.474;2022-09-11T10:08:25;4.43;;;1.95;;
36815;SDS011;22760;51.910;4.474;2022-09-11T10:10:54;6.60;;;2.83;;
36815;SDS011;22760;51.910;4.474;2022-09-11T10:13:23;5.55;;;2.58;;
36815;SDS011;22760;51.910;4.474;2022-09-11T10:15:52;5.57;;;2.40;;
36815;SDS011;22760;51.910;4.474;2022-09-11T10:18:22;4.32;;;2.05;;
36815;SDS011;22760;51.910;4.474;2022-09-11T10:20:58;6.28;;;2.70;;
36815;SDS011;22760;51.910;4.474;2022-09-11T10:23:43;4.82;;;2.75;;
36815;SDS011;22760;51.910;4.474;2022-09-11T10:26:12;2.92;;;1.67;;
36815;SDS011;22760;51.910;4.474;2022-09-11T10:28:41;4.20;;;2.25;;
36815;SDS011;22760;51.910;4.474;2022-09-11T10:31:12;4.10;;;2.20;;
36815;SDS011;22760;51.910;4.474;2022-09-11T10:33:40;5.53;;;2.33;;
36815;SDS011;22760;51.910;4.474;2022-09-11T10:36:12;5.97;;;2.72;;
36815;SDS011;22760;51.910;4.474;2022-09-11T10:38:48;4.18;;;2.75;;
36815;SDS011;22760;51.910;4.474;2022-09-11T10:41:16;5.22;;;2.60;;
36815;SDS011;22760;51.910;4.474;2022-09-11T10:43:47;4.53;;;2.30;;
36815;SDS011;22760;51.910;4.474;2022-09-11T10:46:21;3.92;;;2.17;;
36815;SDS011;22760;51.910;4.474;2022-09-11T10:48:57;5.03;;;2.42;;
36815;SDS011;22760;51.910;4.474;2022-09-11T10:51:35;3.35;;;2.10;;
36815;SDS011;22760;51.910;4.474;2022-09-11T10:54:11;4.90;;;2.42;;
36815;SDS011;22760;51.910;4.474;2022-09-11T10:56:54;7.97;;;2.88;;
36815;SDS011;22760;51.910;4.474;2022-09-11T10:59:30;3.25;;;2.45;;
36815;SDS011;22760;51.910;4.474;2022-09-11T11:02:07;5.97;;;2.20;;
36815;SDS011;22760;51.910;4.474;2022-09-11T11:04:44;4.63;;;2.10;;
36815;SDS011;22760;51.910;4.474;2022-09-11T11:07:14;4.82;;;2.05;;
36815;SDS011;22760;51.910;4.474;2022-09-11T11:09:54;8.77;;;3.00;;
36815;SDS011;22760;51.910;4.474;2022-09-11T11:12:38;9.05;;;2.97;;
36815;SDS011;22760;51.910;4.474;2022-09-11T11:15:18;4.22;;;2.30;;
36815;SDS011;22760;51.910;4.474;2022-09-11T11:18:00;4.25;;;2.65;;
36815;SDS011;22760;51.910;4.474;2022-09-11T11:20:44;3.63;;;1.90;;
36815;SDS011;22760;51.910;4.474;2022-09-11T11:26:30;5.47;;;2.13;;
36815;SDS011;22760;51.910;4.474;2022-09-11T11:29:18;5.22;;;2.33;;
36815;SDS011;22760;51.910;4.474;2022-09-11T11:32:00;2.80;;;1.70;;
36815;SDS011;22760;51.910;4.474;2022-09-11T11:34:58;4.25;;;2.03;;
36815;SDS011;22760;51.910;4.474;2022-09-11T11:37:39;3.80;;;2.40;;
36815;SDS011;22760;51.910;4.474;2022-09-11T11:40:12;4.10;;;2.00;;
36815;SDS011;22760;51.910;4.474;2022-09-11T11:42:46;4.13;;;1.95;;
36815;SDS011;22760;51.910;4.474;2022-09-11T11:45:18;3.70;;;2.20;;
36815;SDS011;22760;51.910;4.474;2022-09-11T11:47:48;2.92;;;1.90;;
36815;SDS011;22760;51.910;4.474;2022-09-11T11:50:20;4.00;;;2.08;;
36815;SDS011;22760;51.910;4.474;2022-09-11T11:52:54;5.13;;;2.25;;
36815;SDS011;22760;51.910;4.474;2022-09-11T11:55:31;3.58;;;1.60;;
36815;SDS011;22760;51.910;4.474;2022-09-11T11:58:11;3.83;;;1.90;;
36815;SDS011;22760;51.910;4.474;2022-09-11T12:00:45;3.75;;;1.60;;
36815;SDS011;22760;51.910;4.474;2022-09-11T12:03:17;4.87;;;1.90;;
36815;SDS011;22760;51.910;4.474;2022-09-11T12:05:48;4.50;;;2.15;;
36815;SDS011;22760;51.910;4.474;2022-09-11T12:08:15;4.88;;;2.17;;
36815;SDS011;22760;51.910;4.474;2022-09-11T12:10:44;4.30;;;2.00;;
36815;SDS011;22760;51.910;4.474;2022-09-11T12:13:18;4.88;;;2.00;;
36815;SDS011;22760;51.910;4.474;2022-09-11T12:16:05;5.75;;;1.90;;
36815;SDS011;22760;51.910;4.474;2022-09-11T12:18:38;3.35;;;2.00;;
36815;SDS011;22760;51.910;4.474;2022-09-11T12:24:14;2.55;;;1.90;;
36815;SDS011;22760;51.910;4.474;2022-09-11T12:26:44;6.45;;;1.60;;
36815;SDS011;22760;51.910;4.474;2022-09-11T12:38:00;8.88;;;5.90;;
36815;SDS011;22760;51.910;4.474;2022-09-11T12:40:38;4.07;;;2.03;;
36815;SDS011;22760;51.910;4.474;2022-09-11T12:43:25;6.30;;;1.98;;
36815;SDS011;22760;51.910;4.474;2022-09-11T12:45:54;3.78;;;1.83;;
36815;SDS011;22760;51.910;4.474;2022-09-11T12:48:22;6.05;;;2.83;;
36815;SDS011;22760;51.910;4.474;2022-09-11T12:50:57;7.03;;;2.05;;
36815;SDS011;22760;51.910;4.474;2022-09-11T12:53:25;6.50;;;2.47;;
36815;SDS011;22760;51.910;4.474;2022-09-11T12:55:55;8.38;;;1.80;;
36815;SDS011;22760;51.910;4.474;2022-09-11T12:58:27;5.47;;;2.00;;
36815;SDS011;22760;51.910;4.474;2022-09-11T13:01:02;4.50;;;1.88;;
36815;SDS011;22760;51.910;4.474;2022-09-11T13:03:37;3.67;;;1.77;;
36815;SDS011;22760;51.910;4.474;2022-09-11T13:06:14;5.95;;;1.48;;
36815;SDS011;22760;51.910;4.474;2022-09-11T13:08:44;4.68;;;1.98;;
36815;SDS011;22760;51.910;4.474;2022-09-11T13:14:07;6.38;;;2.10;;
36815;SDS011;22760;51.910;4.474;2022-09-11T13:17:14;4.55;;;1.90;;
36815;SDS011;22760;51.910;4.474;2022-09-11T13:19:49;5.40;;;2.33;;
36815;SDS011;22760;51.910;4.474;2022-09-11T13:22:21;4.53;;;2.10;;
36815;SDS011;22760;51.910;4.474;2022-09-11T13:24:50;2.50;;;1.80;;
36815;SDS011;22760;51.910;4.474;2022-09-11T13:27:20;2.25;;;1.70;;
36815;SDS011;22760;51.910;4.474;2022-09-11T13:29:51;4.25;;;1.67;;
36815;SDS011;22760;51.910;4.474;2022-09-11T13:32:21;5.67;;;2.43;;
36815;SDS011;22760;51.910;4.474;2022-09-11T13:34:48;3.70;;;2.20;;
36815;SDS011;22760;51.910;4.474;2022-09-11T13:37:22;3.83;;;1.73;;
36815;SDS011;22760;51.910;4.474;2022-09-11T13:39:58;5.00;;;2.37;;
36815;SDS011;22760;51.910;4.474;2022-09-11T13:42:26;5.15;;;1.67;;
36815;SDS011;22760;51.910;4.474;2022-09-11T13:44:55;4.90;;;2.25;;
36815;SDS011;22760;51.910;4.474;2022-09-11T13:47:25;4.13;;;2.00;;
36815;SDS011;22760;51.910;4.474;2022-09-11T13:49:54;4.38;;;2.30;;
36815;SDS011;22760;51.910;4.474;2022-09-11T13:52:24;5.47;;;1.80;;
36815;SDS011;22760;51.910;4.474;2022-09-11T13:54:53;4.43;;;2.25;;
36815;SDS011;22760;51.910;4.474;2022-09-11T13:57:24;5.47;;;1.73;;
36815;SDS011;22760;51.910;4.474;2022-09-11T13:59:52;4.60;;;1.77;;
36815;SDS011;22760;51.910;4.474;2022-09-11T14:02:38;5.95;;;2.00;;
36815;SDS011;22760;51.910;4.474;2022-09-11T14:05:15;5.25;;;2.17;;
36815;SDS011;22760;51.910;4.474;2022-09-11T14:07:53;4.60;;;1.90;;
36815;SDS011;22760;51.910;4.474;2022-09-11T14:10:23;1.80;;;1.70;;
36815;SDS011;22760;51.910;4.474;2022-09-11T14:12:56;4.18;;;2.13;;
36815;SDS011;22760;51.910;4.474;2022-09-11T14:15:34;3.25;;;1.98;;
36815;SDS011;22760;51.910;4.474;2022-09-11T14:18:06;4.40;;;1.80;;
36815;SDS011;22760;51.910;4.474;2022-09-11T14:20:45;6.53;;;2.10;;
36815;SDS011;22760;51.910;4.474;2022-09-11T14:23:15;2.92;;;1.73;;
36815;SDS011;22760;51.910;4.474;2022-09-11T14:26:06;3.28;;;1.45;;
36815;SDS011;22760;51.910;4.474;2022-09-11T14:28:40;3.55;;;1.90;;
36815;SDS011;22760;51.910;4.474;2022-09-11T14:31:09;2.80;;;1.67;;
36815;SDS011;22760;51.910;4.474;2022-09-11T14:33:39;4.95;;;1.90;;
36815;SDS011;22760;51.910;4.474;2022-09-11T14:36:09;7.28;;;2.20;;
36815;SDS011;22760;51.910;4.474;2022-09-11T14:38:41;2.92;;;1.75;;
36815;SDS011;22760;51.910;4.474;2022-09-11T14:41:08;3.00;;;1.70;;
36815;SDS011;22760;51.910;4.474;2022-09-11T14:43:37;2.78;;;1.77;;
36815;SDS011;22760;51.910;4.474;2022-09-11T14:46:04;9.02;;;1.77;;
36815;SDS011;22760;51.910;4.474;2022-09-11T14:48:32;2.47;;;1.25;;
36815;SDS011;22760;51.910;4.474;2022-09-11T14:51:01;2.28;;;1.60;;
36815;SDS011;22760;51.910;4.474;2022-09-11T14:53:32;2.97;;;1.50;;
36815;SDS011;22760;51.910;4.474;2022-09-11T14:56:00;3.72;;;1.92;;
36815;SDS011;22760;51.910;4.474;2022-09-11T14:58:28;5.65;;;2.15;;
36815;SDS011;22760;51.910;4.474;2022-09-11T15:00:55;2.70;;;1.83;;
36815;SDS011;22760;51.910;4.474;2022-09-11T15:03:22;3.08;;;1.75;;
36815;SDS011;22760;51.910;4.474;2022-09-11T15:05:52;4.43;;;1.70;;
36815;SDS011;22760;51.910;4.474;2022-09-11T15:08:23;1.90;;;1.42;;
36815;SDS011;22760;51.910;4.474;2022-09-11T15:10:50;2.30;;;1.58;;